sensor_id;sensor_type;location;lat;lon;timestamp;P1;durP1;ratioP1;P2;durP2;ratioP2
17858;SDS011;35426;30.698;104.050;2023-04-24T00:01:48;12.27;;;4.20;;
17858;SDS011;35426;30.698;104.050;2023-04-24T00:04:22;8.43;;;3.97;;
17858;SDS011;35426;30.698;104.050;2023-04-24T00:06:56;8.07;;;4.17;;
17858;SDS011;35426;30.698;104.050;2023-04-24T00:09:31;8.70;;;4.13;;
17858;SDS011;35426;30.698;104.050;2023-04-24T00:12:05;10.90;;;4.73;;
17858;SDS011;35426;30.698;104.050;2023-04-24T00:14:44;14.60;;;4.70;;
17858;SDS011;35426;30.698;104.050;2023-04-24T00:17:19;11.70;;;5.30;;
17858;SDS011;35426;30.698;104.050;2023-04-24T00:19:52;7.37;;;4.70;;
17858;SDS011;35426;30.698;104.050;2023-04-24T00:22:27;11.13;;;4.53;;
17858;SDS011;35426;30.698;104.050;2023-04-24T00:25:02;6.80;;;4.60;;
17858;SDS011;35426;30.698;104.050;2023-04-24T00:27:36;8.80;;;4.53;;
17858;SDS011;35426;30.698;104.050;2023-04-24T00:30:10;11.50;;;4.63;;
17858;SDS011;35426;30.698;104.050;2023-04-24T00:32:44;16.57;;;5.10;;
17858;SDS011;35426;30.698;104.050;2023-04-24T00:35:17;15.27;;;4.80;;
17858;SDS011;35426;30.698;104.050;2023-04-24T00:37:50;9.20;;;4.77;;
17858;SDS011;35426;30.698;104.050;2023-04-24T00:40:26;10.37;;;5.27;;
17858;SDS011;35426;30.698;104.050;2023-04-24T00:43:00;11.87;;;4.93;;
17858;SDS011;35426;30.698;104.050;2023-04-24T00:45:37;10.03;;;5.00;;
17858;SDS011;35426;30.698;104.050;2023-04-24T00:48:12;13.10;;;5.50;;
17858;SDS011;35426;30.698;104.050;2023-04-24T00:50:46;11.47;;;5.30;;
17858;SDS011;35426;30.698;104.050;2023-04-24T00:53:19;11.30;;;5.03;;
17858;SDS011;35426;30.698;104.050;2023-04-24T00:55:56;8.50;;;4.90;;
17858;SDS011;35426;30.698;104.050;2023-04-24T00:58:30;12.47;;;4.93;;
17858;SDS011;35426;30.698;104.050;2023-04-24T01:01:03;9.43;;;4.70;;
17858;SDS011;35426;30.698;104.050;2023-04-24T01:03:37;13.40;;;5.40;;
17858;SDS011;35426;30.698;104.050;2023-04-24T01:06:11;8.23;;;5.33;;
17858;SDS011;35426;30.698;104.050;2023-04-24T01:08:46;10.07;;;5.13;;
17858;SDS011;35426;30.698;104.050;2023-04-24T01:11:23;14.10;;;5.40;;
17858;SDS011;35426;30.698;104.050;2023-04-24T01:13:57;16.00;;;7.90;;
17858;SDS011;35426;30.698;104.050;2023-04-24T01:16:31;16.43;;;8.70;;
17858;SDS011;35426;30.698;104.050;2023-04-24T01:19:05;13.70;;;7.47;;
17858;SDS011;35426;30.698;104.050;2023-04-24T01:21:39;15.67;;;7.70;;
17858;SDS011;35426;30.698;104.050;2023-04-24T01:24:14;12.20;;;6.47;;
17858;SDS011;35426;30.698;104.050;2023-04-24T01:26:48;13.23;;;6.77;;
17858;SDS011;35426;30.698;104.050;2023-04-24T01:29:22;12.83;;;7.10;;
17858;SDS011;35426;30.698;104.050;2023-04-24T01:31:57;15.73;;;7.07;;
17858;SDS011;35426;30.698;104.050;2023-04-24T01:34:31;12.60;;;7.17;;
17858;SDS011;35426;30.698;104.050;2023-04-24T01:37:05;16.43;;;5.73;;
17858;SDS011;35426;30.698;104.050;2023-04-24T01:39:45;13.87;;;5.37;;
17858;SDS011;35426;30.698;104.050;2023-04-24T01:42:18;8.07;;;5.00;;
17858;SDS011;35426;30.698;104.050;2023-04-24T01:44:52;7.90;;;4.77;;
17858;SDS011;35426;30.698;104.050;2023-04-24T01:47:26;10.53;;;5.10;;
17858;SDS011;35426;30.698;104.050;2023-04-24T01:49:59;12.67;;;5.03;;
17858;SDS011;35426;30.698;104.050;2023-04-24T01:52:33;9.77;;;5.27;;
17858;SDS011;35426;30.698;104.050;2023-04-24T01:55:11;11.60;;;5.47;;
17858;SDS011;35426;30.698;104.050;2023-04-24T01:57:45;9.47;;;4.70;;
17858;SDS011;35426;30.698;104.050;2023-04-24T02:00:19;10.17;;;5.20;;
17858;SDS011;35426;30.698;104.050;2023-04-24T02:02:53;13.10;;;5.50;;
17858;SDS011;35426;30.698;104.050;2023-04-24T02:05:27;10.03;;;5.17;;
17858;SDS011;35426;30.698;104.050;2023-04-24T02:08:03;10.03;;;5.37;;
17858;SDS011;35426;30.698;104.050;2023-04-24T02:10:39;15.43;;;5.30;;
17858;SDS011;35426;30.698;104.050;2023-04-24T02:13:13;11.30;;;5.00;;
17858;SDS011;35426;30.698;104.050;2023-04-24T02:15:49;8.70;;;4.90;;
17858;SDS011;35426;30.698;104.050;2023-04-24T02:18:23;11.53;;;5.40;;
17858;SDS011;35426;30.698;104.050;2023-04-24T02:20:57;10.20;;;5.03;;
17858;SDS011;35426;30.698;104.050;2023-04-24T02:23:31;8.20;;;4.83;;
17858;SDS011;35426;30.698;104.050;2023-04-24T02:26:07;13.33;;;5.77;;
17858;SDS011;35426;30.698;104.050;2023-04-24T02:28:41;13.10;;;5.80;;
17858;SDS011;35426;30.698;104.050;2023-04-24T02:31:14;10.20;;;5.43;;
17858;SDS011;35426;30.698;104.050;2023-04-24T02:33:47;12.53;;;5.60;;
17858;SDS011;35426;30.698;104.050;2023-04-24T02:36:21;15.27;;;5.53;;
17858;SDS011;35426;30.698;104.050;2023-04-24T02:38:55;9.57;;;5.50;;
17858;SDS011;35426;30.698;104.050;2023-04-24T02:41:34;8.50;;;5.30;;
17858;SDS011;35426;30.698;104.050;2023-04-24T02:44:08;10.53;;;5.20;;
17858;SDS011;35426;30.698;104.050;2023-04-24T02:46:42;6.97;;;4.00;;
17858;SDS011;35426;30.698;104.050;2023-04-24T02:49:16;9.73;;;4.83;;
17858;SDS011;35426;30.698;104.050;2023-04-24T02:51:50;10.37;;;5.17;;
17858;SDS011;35426;30.698;104.050;2023-04-24T02:54:23;8.60;;;5.30;;
17858;SDS011;35426;30.698;104.050;2023-04-24T02:57:02;7.90;;;4.30;;
17858;SDS011;35426;30.698;104.050;2023-04-24T02:59:35;5.87;;;3.60;;
17858;SDS011;35426;30.698;104.050;2023-04-24T03:02:09;6.60;;;4.07;;
17858;SDS011;35426;30.698;104.050;2023-04-24T03:04:43;9.73;;;5.10;;
17858;SDS011;35426;30.698;104.050;2023-04-24T03:07:17;7.57;;;4.30;;
17858;SDS011;35426;30.698;104.050;2023-04-24T03:09:50;6.37;;;4.30;;
17858;SDS011;35426;30.698;104.050;2023-04-24T03:12:27;10.03;;;4.70;;
17858;SDS011;35426;30.698;104.050;2023-04-24T03:15:02;16.47;;;5.13;;
17858;SDS011;35426;30.698;104.050;2023-04-24T03:17:37;12.13;;;5.63;;
17858;SDS011;35426;30.698;104.050;2023-04-24T03:20:10;14.97;;;5.00;;
17858;SDS011;35426;30.698;104.050;2023-04-24T03:22:46;13.70;;;6.50;;
17858;SDS011;35426;30.698;104.050;2023-04-24T03:25:22;8.90;;;6.00;;
17858;SDS011;35426;30.698;104.050;2023-04-24T03:27:58;9.50;;;5.90;;
17858;SDS011;35426;30.698;104.050;2023-04-24T03:30:44;15.90;;;7.00;;
17858;SDS011;35426;30.698;104.050;2023-04-24T03:33:18;11.77;;;6.30;;
17858;SDS011;35426;30.698;104.050;2023-04-24T03:36:00;13.77;;;6.87;;
17858;SDS011;35426;30.698;104.050;2023-04-24T03:38:39;11.73;;;6.70;;
17858;SDS011;35426;30.698;104.050;2023-04-24T03:41:37;13.17;;;7.17;;
17858;SDS011;35426;30.698;104.050;2023-04-24T03:44:17;18.83;;;7.40;;
17858;SDS011;35426;30.698;104.050;2023-04-24T03:46:50;16.00;;;8.03;;
17858;SDS011;35426;30.698;104.050;2023-04-24T03:49:24;14.10;;;7.20;;
17858;SDS011;35426;30.698;104.050;2023-04-24T03:51:57;15.60;;;7.73;;
17858;SDS011;35426;30.698;104.050;2023-04-24T03:54:31;15.83;;;8.00;;
17858;SDS011;35426;30.698;104.050;2023-04-24T03:57:05;12.23;;;6.93;;
17858;SDS011;35426;30.698;104.050;2023-04-24T03:59:51;12.47;;;6.83;;
17858;SDS011;35426;30.698;104.050;2023-04-24T04:02:25;13.77;;;6.40;;
17858;SDS011;35426;30.698;104.050;2023-04-24T04:04:59;12.10;;;6.33;;
17858;SDS011;35426;30.698;104.050;2023-04-24T04:07:33;14.40;;;6.10;;
17858;SDS011;35426;30.698;104.050;2023-04-24T04:10:07;15.47;;;6.90;;
17858;SDS011;35426;30.698;104.050;2023-04-24T04:12:41;12.50;;;6.73;;
17858;SDS011;35426;30.698;104.050;2023-04-24T04:15:16;12.50;;;7.10;;
17858;SDS011;35426;30.698;104.050;2023-04-24T04:17:50;12.00;;;6.50;;
17858;SDS011;35426;30.698;104.050;2023-04-24T04:20:23;19.27;;;6.83;;
17858;SDS011;35426;30.698;104.050;2023-04-24T04:22:57;14.43;;;6.60;;
17858;SDS011;35426;30.698;104.050;2023-04-24T04:25:41;12.93;;;6.63;;
17858;SDS011;35426;30.698;104.050;2023-04-24T04:28:18;15.57;;;6.90;;
17858;SDS011;35426;30.698;104.050;2023-04-24T04:30:54;9.63;;;6.50;;
17858;SDS011;35426;30.698;104.050;2023-04-24T04:33:27;10.80;;;6.00;;
17858;SDS011;35426;30.698;104.050;2023-04-24T04:36:01;10.57;;;6.60;;
17858;SDS011;35426;30.698;104.050;2023-04-24T04:38:38;17.13;;;7.00;;
17858;SDS011;35426;30.698;104.050;2023-04-24T04:41:41;10.27;;;5.83;;
17858;SDS011;35426;30.698;104.050;2023-04-24T04:44:17;9.30;;;5.80;;
17858;SDS011;35426;30.698;104.050;2023-04-24T04:46:54;9.80;;;6.00;;
17858;SDS011;35426;30.698;104.050;2023-04-24T04:49:31;9.13;;;5.23;;
17858;SDS011;35426;30.698;104.050;2023-04-24T04:52:09;11.37;;;5.90;;
17858;SDS011;35426;30.698;104.050;2023-04-24T04:54:43;12.03;;;6.10;;
17858;SDS011;35426;30.698;104.050;2023-04-24T04:57:17;9.37;;;5.47;;
17858;SDS011;35426;30.698;104.050;2023-04-24T04:59:51;10.30;;;5.63;;
17858;SDS011;35426;30.698;104.050;2023-04-24T05:02:40;9.77;;;5.37;;
17858;SDS011;35426;30.698;104.050;2023-04-24T05:05:13;8.20;;;5.97;;
17858;SDS011;35426;30.698;104.050;2023-04-24T05:07:49;9.63;;;6.30;;
17858;SDS011;35426;30.698;104.050;2023-04-24T05:10:23;16.03;;;6.17;;
17858;SDS011;35426;30.698;104.050;2023-04-24T05:12:56;7.97;;;5.80;;
17858;SDS011;35426;30.698;104.050;2023-04-24T05:15:29;8.70;;;5.57;;
17858;SDS011;35426;30.698;104.050;2023-04-24T05:18:05;8.53;;;5.80;;
17858;SDS011;35426;30.698;104.050;2023-04-24T05:20:38;10.33;;;6.00;;
17858;SDS011;35426;30.698;104.050;2023-04-24T05:23:13;13.23;;;6.73;;
17858;SDS011;35426;30.698;104.050;2023-04-24T05:25:51;12.77;;;6.27;;
17858;SDS011;35426;30.698;104.050;2023-04-24T05:28:24;11.13;;;6.77;;
17858;SDS011;35426;30.698;104.050;2023-04-24T05:31:06;11.47;;;6.27;;
17858;SDS011;35426;30.698;104.050;2023-04-24T05:33:41;7.93;;;5.80;;
17858;SDS011;35426;30.698;104.050;2023-04-24T05:36:15;9.93;;;6.20;;
17858;SDS011;35426;30.698;104.050;2023-04-24T05:38:49;11.33;;;5.73;;
17858;SDS011;35426;30.698;104.050;2023-04-24T05:41:22;10.27;;;6.03;;
17858;SDS011;35426;30.698;104.050;2023-04-24T05:43:56;10.13;;;6.40;;
17858;SDS011;35426;30.698;104.050;2023-04-24T05:46:30;8.67;;;5.33;;
17858;SDS011;35426;30.698;104.050;2023-04-24T05:49:06;11.30;;;5.27;;
17858;SDS011;35426;30.698;104.050;2023-04-24T05:51:40;11.33;;;6.60;;
17858;SDS011;35426;30.698;104.050;2023-04-24T05:54:15;12.60;;;6.40;;
17858;SDS011;35426;30.698;104.050;2023-04-24T05:56:50;9.07;;;6.47;;
17858;SDS011;35426;30.698;104.050;2023-04-24T05:59:36;8.10;;;6.10;;
17858;SDS011;35426;30.698;104.050;2023-04-24T06:02:11;9.43;;;5.73;;
17858;SDS011;35426;30.698;104.050;2023-04-24T06:04:47;9.23;;;6.47;;
17858;SDS011;35426;30.698;104.050;2023-04-24T06:07:21;10.53;;;6.13;;
17858;SDS011;35426;30.698;104.050;2023-04-24T06:09:56;12.23;;;6.33;;
17858;SDS011;35426;30.698;104.050;2023-04-24T06:12:35;13.30;;;6.60;;
17858;SDS011;35426;30.698;104.050;2023-04-24T06:15:15;13.23;;;6.10;;
17858;SDS011;35426;30.698;104.050;2023-04-24T06:17:56;13.17;;;6.30;;
17858;SDS011;35426;30.698;104.050;2023-04-24T06:20:32;12.13;;;6.30;;
17858;SDS011;35426;30.698;104.050;2023-04-24T06:23:04;12.57;;;6.33;;
17858;SDS011;35426;30.698;104.050;2023-04-24T06:25:38;14.70;;;6.50;;
17858;SDS011;35426;30.698;104.050;2023-04-24T06:28:12;10.40;;;6.50;;
17858;SDS011;35426;30.698;104.050;2023-04-24T06:30:46;10.97;;;6.90;;
17858;SDS011;35426;30.698;104.050;2023-04-24T06:33:19;12.23;;;6.47;;
17858;SDS011;35426;30.698;104.050;2023-04-24T06:35:55;11.47;;;6.40;;
17858;SDS011;35426;30.698;104.050;2023-04-24T06:38:28;13.73;;;6.90;;
17858;SDS011;35426;30.698;104.050;2023-04-24T06:41:03;12.83;;;6.80;;
17858;SDS011;35426;30.698;104.050;2023-04-24T06:43:36;9.70;;;6.00;;
17858;SDS011;35426;30.698;104.050;2023-04-24T06:46:09;9.47;;;6.63;;
17858;SDS011;35426;30.698;104.050;2023-04-24T06:48:43;11.43;;;6.73;;
17858;SDS011;35426;30.698;104.050;2023-04-24T06:51:18;13.23;;;6.30;;
17858;SDS011;35426;30.698;104.050;2023-04-24T06:53:53;13.47;;;6.37;;
17858;SDS011;35426;30.698;104.050;2023-04-24T06:56:27;11.23;;;6.17;;
17858;SDS011;35426;30.698;104.050;2023-04-24T06:59:06;13.37;;;6.83;;
17858;SDS011;35426;30.698;104.050;2023-04-24T07:01:40;12.93;;;7.10;;
17858;SDS011;35426;30.698;104.050;2023-04-24T07:04:14;16.03;;;7.87;;
17858;SDS011;35426;30.698;104.050;2023-04-24T07:06:57;14.27;;;7.43;;
17858;SDS011;35426;30.698;104.050;2023-04-24T07:09:39;14.03;;;8.07;;
17858;SDS011;35426;30.698;104.050;2023-04-24T07:12:14;13.40;;;7.47;;
17858;SDS011;35426;30.698;104.050;2023-04-24T07:14:50;11.33;;;7.63;;
17858;SDS011;35426;30.698;104.050;2023-04-24T07:17:23;14.80;;;7.67;;
17858;SDS011;35426;30.698;104.050;2023-04-24T07:19:57;16.60;;;8.57;;
17858;SDS011;35426;30.698;104.050;2023-04-24T07:22:32;15.53;;;8.83;;
17858;SDS011;35426;30.698;104.050;2023-04-24T07:25:06;14.70;;;8.10;;
17858;SDS011;35426;30.698;104.050;2023-04-24T07:27:44;17.13;;;7.63;;
17858;SDS011;35426;30.698;104.050;2023-04-24T07:30:18;13.83;;;8.27;;
17858;SDS011;35426;30.698;104.050;2023-04-24T07:32:51;14.60;;;7.90;;
17858;SDS011;35426;30.698;104.050;2023-04-24T07:35:25;13.17;;;8.87;;
17858;SDS011;35426;30.698;104.050;2023-04-24T07:38:01;12.90;;;7.87;;
17858;SDS011;35426;30.698;104.050;2023-04-24T07:40:34;13.03;;;7.70;;
17858;SDS011;35426;30.698;104.050;2023-04-24T07:43:09;11.90;;;7.00;;
17858;SDS011;35426;30.698;104.050;2023-04-24T07:45:47;11.43;;;7.70;;
17858;SDS011;35426;30.698;104.050;2023-04-24T07:48:20;10.97;;;7.43;;
17858;SDS011;35426;30.698;104.050;2023-04-24T07:50:56;12.40;;;7.73;;
17858;SDS011;35426;30.698;104.050;2023-04-24T07:53:31;12.57;;;7.30;;
17858;SDS011;35426;30.698;104.050;2023-04-24T07:56:05;11.23;;;7.70;;
17858;SDS011;35426;30.698;104.050;2023-04-24T07:58:39;12.67;;;6.90;;
17858;SDS011;35426;30.698;104.050;2023-04-24T08:01:12;13.63;;;7.90;;
17858;SDS011;35426;30.698;104.050;2023-04-24T08:03:46;11.00;;;7.33;;
17858;SDS011;35426;30.698;104.050;2023-04-24T08:06:20;14.67;;;7.20;;
17858;SDS011;35426;30.698;104.050;2023-04-24T08:08:57;13.80;;;7.30;;
17858;SDS011;35426;30.698;104.050;2023-04-24T08:11:30;12.37;;;7.50;;
17858;SDS011;35426;30.698;104.050;2023-04-24T08:14:05;11.83;;;6.67;;
17858;SDS011;35426;30.698;104.050;2023-04-24T08:16:38;10.47;;;6.90;;
17858;SDS011;35426;30.698;104.050;2023-04-24T08:19:12;11.70;;;6.10;;
17858;SDS011;35426;30.698;104.050;2023-04-24T08:21:48;13.17;;;6.80;;
17858;SDS011;35426;30.698;104.050;2023-04-24T08:24:29;10.43;;;6.70;;
17858;SDS011;35426;30.698;104.050;2023-04-24T08:27:03;11.37;;;6.27;;
17858;SDS011;35426;30.698;104.050;2023-04-24T08:29:36;9.73;;;6.10;;
17858;SDS011;35426;30.698;104.050;2023-04-24T08:32:10;18.47;;;6.00;;
17858;SDS011;35426;30.698;104.050;2023-04-24T08:34:43;14.87;;;6.23;;
17858;SDS011;35426;30.698;104.050;2023-04-24T08:37:17;12.23;;;7.17;;
17858;SDS011;35426;30.698;104.050;2023-04-24T08:39:52;14.87;;;6.67;;
17858;SDS011;35426;30.698;104.050;2023-04-24T08:42:26;12.00;;;6.93;;
17858;SDS011;35426;30.698;104.050;2023-04-24T08:45:02;12.10;;;6.70;;
17858;SDS011;35426;30.698;104.050;2023-04-24T08:47:40;13.80;;;7.20;;
17858;SDS011;35426;30.698;104.050;2023-04-24T08:50:14;15.80;;;7.13;;
17858;SDS011;35426;30.698;104.050;2023-04-24T08:52:48;12.40;;;6.50;;
17858;SDS011;35426;30.698;104.050;2023-04-24T08:55:24;16.43;;;6.60;;
17858;SDS011;35426;30.698;104.050;2023-04-24T08:57:59;13.10;;;6.17;;
17858;SDS011;35426;30.698;104.050;2023-04-24T09:00:32;9.83;;;6.17;;
17858;SDS011;35426;30.698;104.050;2023-04-24T09:03:06;13.87;;;6.27;;
17858;SDS011;35426;30.698;104.050;2023-04-24T09:05:40;11.17;;;6.80;;
17858;SDS011;35426;30.698;104.050;2023-04-24T09:08:17;11.17;;;6.10;;
17858;SDS011;35426;30.698;104.050;2023-04-24T09:10:54;9.20;;;5.60;;
17858;SDS011;35426;30.698;104.050;2023-04-24T09:13:31;14.47;;;6.47;;
17858;SDS011;35426;30.698;104.050;2023-04-24T09:16:04;13.67;;;7.27;;
17858;SDS011;35426;30.698;104.050;2023-04-24T09:18:38;15.27;;;6.67;;
17858;SDS011;35426;30.698;104.050;2023-04-24T09:21:11;13.57;;;6.20;;
17858;SDS011;35426;30.698;104.050;2023-04-24T09:23:45;9.73;;;6.00;;
17858;SDS011;35426;30.698;104.050;2023-04-24T09:26:31;12.17;;;5.67;;
17858;SDS011;35426;30.698;104.050;2023-04-24T09:29:07;8.13;;;5.23;;
17858;SDS011;35426;30.698;104.050;2023-04-24T09:31:45;11.77;;;6.03;;
17858;SDS011;35426;30.698;104.050;2023-04-24T09:34:21;14.03;;;6.40;;
17858;SDS011;35426;30.698;104.050;2023-04-24T09:36:55;22.23;;;12.53;;
17858;SDS011;35426;30.698;104.050;2023-04-24T09:39:28;14.83;;;10.70;;
17858;SDS011;35426;30.698;104.050;2023-04-24T09:42:22;27.60;;;13.67;;
17858;SDS011;35426;30.698;104.050;2023-04-24T09:45:01;22.53;;;14.87;;
17858;SDS011;35426;30.698;104.050;2023-04-24T09:47:42;23.07;;;12.97;;
17858;SDS011;35426;30.698;104.050;2023-04-24T09:50:16;20.43;;;12.17;;
17858;SDS011;35426;30.698;104.050;2023-04-24T09:52:56;23.33;;;13.73;;
17858;SDS011;35426;30.698;104.050;2023-04-24T09:55:30;28.17;;;16.20;;
17858;SDS011;35426;30.698;104.050;2023-04-24T09:58:04;28.37;;;16.63;;
17858;SDS011;35426;30.698;104.050;2023-04-24T10:00:39;26.20;;;17.30;;
17858;SDS011;35426;30.698;104.050;2023-04-24T10:03:12;26.77;;;16.23;;
17858;SDS011;35426;30.698;104.050;2023-04-24T10:05:47;27.20;;;17.23;;
17858;SDS011;35426;30.698;104.050;2023-04-24T10:08:20;31.00;;;16.23;;
17858;SDS011;35426;30.698;104.050;2023-04-24T10:10:54;29.73;;;16.67;;
17858;SDS011;35426;30.698;104.050;2023-04-24T10:13:30;31.50;;;16.70;;
17858;SDS011;35426;30.698;104.050;2023-04-24T10:16:05;27.43;;;16.10;;
17858;SDS011;35426;30.698;104.050;2023-04-24T10:18:39;27.43;;;16.87;;
17858;SDS011;35426;30.698;104.050;2023-04-24T10:21:13;26.63;;;16.97;;
17858;SDS011;35426;30.698;104.050;2023-04-24T10:23:48;26.40;;;16.47;;
17858;SDS011;35426;30.698;104.050;2023-04-24T10:26:22;28.70;;;15.90;;
17858;SDS011;35426;30.698;104.050;2023-04-24T10:28:58;27.40;;;16.43;;
17858;SDS011;35426;30.698;104.050;2023-04-24T10:31:32;28.50;;;15.50;;
17858;SDS011;35426;30.698;104.050;2023-04-24T10:34:06;29.30;;;17.00;;
17858;SDS011;35426;30.698;104.050;2023-04-24T10:36:41;28.60;;;15.63;;
17858;SDS011;35426;30.698;104.050;2023-04-24T10:39:22;23.97;;;14.13;;
17858;SDS011;35426;30.698;104.050;2023-04-24T10:41:56;28.43;;;14.90;;
17858;SDS011;35426;30.698;104.050;2023-04-24T10:44:39;29.30;;;16.40;;
17858;SDS011;35426;30.698;104.050;2023-04-24T10:47:13;34.13;;;16.40;;
17858;SDS011;35426;30.698;104.050;2023-04-24T10:49:47;30.40;;;15.37;;
17858;SDS011;35426;30.698;104.050;2023-04-24T10:52:26;33.43;;;15.53;;
17858;SDS011;35426;30.698;104.050;2023-04-24T10:55:17;25.73;;;13.23;;
17858;SDS011;35426;30.698;104.050;2023-04-24T10:58:14;26.87;;;13.30;;
17858;SDS011;35426;30.698;104.050;2023-04-24T11:00:56;25.37;;;13.70;;
17858;SDS011;35426;30.698;104.050;2023-04-24T11:03:33;33.27;;;13.47;;
17858;SDS011;35426;30.698;104.050;2023-04-24T11:06:11;27.27;;;13.07;;
17858;SDS011;35426;30.698;104.050;2023-04-24T11:08:45;26.27;;;13.20;;
17858;SDS011;35426;30.698;104.050;2023-04-24T11:11:19;23.10;;;12.93;;
17858;SDS011;35426;30.698;104.050;2023-04-24T11:14:04;26.60;;;12.97;;
17858;SDS011;35426;30.698;104.050;2023-04-24T11:16:44;27.53;;;11.80;;
17858;SDS011;35426;30.698;104.050;2023-04-24T11:19:25;25.07;;;12.40;;
17858;SDS011;35426;30.698;104.050;2023-04-24T11:22:00;26.23;;;11.73;;
17858;SDS011;35426;30.698;104.050;2023-04-24T11:24:37;25.77;;;11.90;;
17858;SDS011;35426;30.698;104.050;2023-04-24T11:27:18;25.70;;;11.57;;
17858;SDS011;35426;30.698;104.050;2023-04-24T11:29:59;22.57;;;11.50;;
17858;SDS011;35426;30.698;104.050;2023-04-24T11:32:36;21.77;;;11.47;;
17858;SDS011;35426;30.698;104.050;2023-04-24T11:35:13;24.10;;;11.77;;
17858;SDS011;35426;30.698;104.050;2023-04-24T11:37:48;27.17;;;12.67;;
17858;SDS011;35426;30.698;104.050;2023-04-24T11:40:26;25.60;;;13.33;;
17858;SDS011;35426;30.698;104.050;2023-04-24T11:43:00;28.87;;;15.23;;
17858;SDS011;35426;30.698;104.050;2023-04-24T11:45:35;34.33;;;16.40;;
17858;SDS011;35426;30.698;104.050;2023-04-24T11:48:11;30.83;;;16.07;;
17858;SDS011;35426;30.698;104.050;2023-04-24T11:50:51;30.47;;;16.27;;
17858;SDS011;35426;30.698;104.050;2023-04-24T11:53:24;32.27;;;15.47;;
17858;SDS011;35426;30.698;104.050;2023-04-24T11:55:58;31.43;;;15.30;;
17858;SDS011;35426;30.698;104.050;2023-04-24T11:58:35;34.07;;;15.60;;
17858;SDS011;35426;30.698;104.050;2023-04-24T12:01:09;27.10;;;15.63;;
17858;SDS011;35426;30.698;104.050;2023-04-24T12:03:44;28.00;;;16.07;;
17858;SDS011;35426;30.698;104.050;2023-04-24T12:06:21;29.97;;;16.77;;
17858;SDS011;35426;30.698;104.050;2023-04-24T12:08:55;33.03;;;16.07;;
17858;SDS011;35426;30.698;104.050;2023-04-24T12:11:38;32.37;;;17.17;;
17858;SDS011;35426;30.698;104.050;2023-04-24T12:14:26;33.50;;;16.50;;
17858;SDS011;35426;30.698;104.050;2023-04-24T12:17:02;39.00;;;17.87;;
17858;SDS011;35426;30.698;104.050;2023-04-24T12:19:38;34.30;;;18.50;;
17858;SDS011;35426;30.698;104.050;2023-04-24T12:22:18;42.63;;;19.17;;
17858;SDS011;35426;30.698;104.050;2023-04-24T12:25:00;43.93;;;19.67;;
17858;SDS011;35426;30.698;104.050;2023-04-24T12:27:35;39.57;;;20.80;;
17858;SDS011;35426;30.698;104.050;2023-04-24T12:30:10;38.50;;;20.60;;
17858;SDS011;35426;30.698;104.050;2023-04-24T12:32:47;47.47;;;22.70;;
17858;SDS011;35426;30.698;104.050;2023-04-24T12:35:27;41.50;;;20.43;;
17858;SDS011;35426;30.698;104.050;2023-04-24T12:38:07;45.33;;;22.23;;
17858;SDS011;35426;30.698;104.050;2023-04-24T12:40:43;46.37;;;21.93;;
17858;SDS011;35426;30.698;104.050;2023-04-24T12:43:17;47.27;;;23.03;;
17858;SDS011;35426;30.698;104.050;2023-04-24T12:45:50;42.93;;;22.07;;
17858;SDS011;35426;30.698;104.050;2023-04-24T12:48:25;44.37;;;22.27;;
17858;SDS011;35426;30.698;104.050;2023-04-24T12:51:01;52.60;;;24.17;;
17858;SDS011;35426;30.698;104.050;2023-04-24T12:53:34;47.77;;;24.03;;
17858;SDS011;35426;30.698;104.050;2023-04-24T12:56:11;45.27;;;22.80;;
17858;SDS011;35426;30.698;104.050;2023-04-24T12:58:49;47.97;;;24.33;;
17858;SDS011;35426;30.698;104.050;2023-04-24T13:01:26;45.87;;;25.23;;
17858;SDS011;35426;30.698;104.050;2023-04-24T13:04:00;50.10;;;25.33;;
17858;SDS011;35426;30.698;104.050;2023-04-24T13:06:35;56.13;;;26.33;;
17858;SDS011;35426;30.698;104.050;2023-04-24T13:09:08;53.10;;;24.63;;
17858;SDS011;35426;30.698;104.050;2023-04-24T13:11:42;45.40;;;23.50;;
17858;SDS011;35426;30.698;104.050;2023-04-24T13:14:14;51.37;;;23.40;;
17858;SDS011;35426;30.698;104.050;2023-04-24T13:16:47;43.43;;;22.60;;
17858;SDS011;35426;30.698;104.050;2023-04-24T13:19:26;47.47;;;21.87;;
17858;SDS011;35426;30.698;104.050;2023-04-24T13:22:02;44.90;;;21.87;;
17858;SDS011;35426;30.698;104.050;2023-04-24T13:24:36;33.13;;;18.60;;
17858;SDS011;35426;30.698;104.050;2023-04-24T13:27:11;32.93;;;18.77;;
17858;SDS011;35426;30.698;104.050;2023-04-24T13:29:44;39.07;;;20.30;;
17858;SDS011;35426;30.698;104.050;2023-04-24T13:32:18;36.83;;;19.20;;
17858;SDS011;35426;30.698;104.050;2023-04-24T13:34:51;33.27;;;19.03;;
17858;SDS011;35426;30.698;104.050;2023-04-24T13:37:27;34.73;;;18.00;;
17858;SDS011;35426;30.698;104.050;2023-04-24T13:40:01;31.90;;;18.20;;
17858;SDS011;35426;30.698;104.050;2023-04-24T13:42:36;38.97;;;19.03;;
17858;SDS011;35426;30.698;104.050;2023-04-24T13:45:11;33.77;;;19.20;;
17858;SDS011;35426;30.698;104.050;2023-04-24T13:47:50;34.73;;;18.40;;
17858;SDS011;35426;30.698;104.050;2023-04-24T13:50:28;31.00;;;16.93;;
17858;SDS011;35426;30.698;104.050;2023-04-24T13:53:03;31.23;;;18.53;;
17858;SDS011;35426;30.698;104.050;2023-04-24T13:55:37;30.27;;;17.73;;
17858;SDS011;35426;30.698;104.050;2023-04-24T13:58:12;34.23;;;18.13;;
17858;SDS011;35426;30.698;104.050;2023-04-24T14:00:46;39.63;;;19.63;;
17858;SDS011;35426;30.698;104.050;2023-04-24T14:03:19;33.50;;;19.30;;
17858;SDS011;35426;30.698;104.050;2023-04-24T14:05:53;34.30;;;18.63;;
17858;SDS011;35426;30.698;104.050;2023-04-24T14:08:30;34.77;;;19.80;;
17858;SDS011;35426;30.698;104.050;2023-04-24T14:11:04;38.53;;;18.83;;
17858;SDS011;35426;30.698;104.050;2023-04-24T14:13:38;36.73;;;19.53;;
17858;SDS011;35426;30.698;104.050;2023-04-24T14:16:14;34.60;;;18.20;;
17858;SDS011;35426;30.698;104.050;2023-04-24T14:18:47;34.43;;;17.33;;
17858;SDS011;35426;30.698;104.050;2023-04-24T14:21:22;43.47;;;24.30;;
17858;SDS011;35426;30.698;104.050;2023-04-24T14:23:58;42.00;;;21.63;;
17858;SDS011;35426;30.698;104.050;2023-04-24T14:26:32;29.53;;;17.20;;
17858;SDS011;35426;30.698;104.050;2023-04-24T14:29:08;29.23;;;15.93;;
17858;SDS011;35426;30.698;104.050;2023-04-24T14:31:42;25.17;;;14.57;;
17858;SDS011;35426;30.698;104.050;2023-04-24T14:34:16;29.13;;;14.57;;
17858;SDS011;35426;30.698;104.050;2023-04-24T14:36:49;25.20;;;15.50;;
17858;SDS011;35426;30.698;104.050;2023-04-24T14:39:25;23.63;;;14.13;;
17858;SDS011;35426;30.698;104.050;2023-04-24T14:42:01;25.60;;;14.13;;
17858;SDS011;35426;30.698;104.050;2023-04-24T14:44:34;28.27;;;14.40;;
17858;SDS011;35426;30.698;104.050;2023-04-24T14:47:10;22.40;;;13.67;;
17858;SDS011;35426;30.698;104.050;2023-04-24T14:49:46;27.87;;;13.60;;
17858;SDS011;35426;30.698;104.050;2023-04-24T14:52:23;22.97;;;12.90;;
17858;SDS011;35426;30.698;104.050;2023-04-24T14:54:58;23.40;;;12.90;;